DESEF EDXW-GWT
Flight info
| Callsign | DESEF |
|---|---|
| Flight time | N/A |
| Altitude | |
| Route | EDXW/32 |
| Aircraft | A210 |
Departure
| Time | 2026-05-05 19:44 |
|---|---|
| Airport | Westerland Sylt Airport (EDXW) |
Arrival
| Time | N/A |
|---|---|
| Airport | GWT |
| Time | Latitude | Longitude | Altitude | Speed | Heading |
|---|---|---|---|---|---|
| 2026-05-05 19:39 | 54.90245 | 8.33935 | 22 ft | 21 kts | 97° |
| 2026-05-05 19:40 | 54.90243 | 8.34195 | 24 ft | 21 kts | 81° |
| 2026-05-05 19:40 | 54.90268 | 8.34464 | 25 ft | 24 kts | 79° |
| 2026-05-05 19:40 | 54.90299 | 8.34772 | 26 ft | 27 kts | 75° |
| 2026-05-05 19:40 | 54.90326 | 8.35036 | 29 ft | 12 kts | 61° |
| 2026-05-05 19:41 | 54.90332 | 8.35056 | 29 ft | 0 kts | 64° |
| 2026-05-05 19:41 | 54.90332 | 8.35057 | 29 ft | 0 kts | 64° |
| 2026-05-05 19:41 | 54.90332 | 8.35056 | 29 ft | 0 kts | 64° |
| 2026-05-05 19:42 | 54.90333 | 8.35059 | 29 ft | 2 kts | 62° |
| 2026-05-05 19:42 | 54.90388 | 8.35167 | 29 ft | 16 kts | 17° |
| 2026-05-05 19:43 | 54.90438 | 8.35138 | 29 ft | 0 kts | 316° |
| 2026-05-05 19:43 | 54.90574 | 8.34974 | 29 ft | 53 kts | 325° |
| 2026-05-05 19:43 | 54.90905 | 8.34479 | 140 ft | 65 kts | 327° |
| 2026-05-05 19:43 | 54.91259 | 8.34045 | 357 ft | 60 kts | 330° |
| 2026-05-05 19:44 | 54.91609 | 8.33622 | 525 ft | 66 kts | 328° |
| 2026-05-05 19:44 | 54.92012 | 8.33200 | 725 ft | 68 kts | 348° |
| 2026-05-05 19:44 | 54.92444 | 8.33390 | 929 ft | 69 kts | 31° |
| 2026-05-05 19:44 | 54.92719 | 8.34150 | 1032 ft | 82 kts | 52° |
| 2026-05-05 19:45 | 54.92999 | 8.35007 | 991 ft | 94 kts | 73° |
| 2026-05-05 19:45 | 54.92771 | 8.36105 | 1118 ft | 89 kts | 112° |
| 2026-05-05 19:45 | 54.92137 | 8.36670 | 1020 ft | 113 kts | 151° |
| 2026-05-05 19:45 | 54.91509 | 8.37334 | 1120 ft | 99 kts | 131° |
| 2026-05-05 19:46 | 54.90995 | 8.38101 | 1167 ft | 98 kts | 124° |
| 2026-05-05 19:46 | 54.90594 | 8.38777 | 1206 ft | 65 kts | 120° |
| 2026-05-05 19:46 | 54.90253 | 8.39321 | 1075 ft | 70 kts | 146° |
| 2026-05-05 19:46 | 54.89725 | 8.39380 | 941 ft | 79 kts | 180° |
| 2026-05-05 19:47 | 54.89206 | 8.39049 | 852 ft | 76 kts | 204° |
| 2026-05-05 19:47 | 54.88913 | 8.38396 | 770 ft | 65 kts | 265° |
| 2026-05-05 19:47 | 54.88963 | 8.37659 | 677 ft | 62 kts | 288° |
| 2026-05-05 19:47 | 54.89112 | 8.36982 | 602 ft | 60 kts | 307° |
| 2026-05-05 19:48 | 54.89383 | 8.36414 | 481 ft | 63 kts | 324° |
| 2026-05-05 19:48 | 54.89723 | 8.35950 | 374 ft | 61 kts | 334° |
| 2026-05-05 19:48 | 54.90085 | 8.35542 | 231 ft | 62 kts | 338° |
| 2026-05-05 19:48 | 54.90439 | 8.35129 | 61 ft | 61 kts | 333° |
| 2026-05-05 19:49 | 54.90702 | 8.34813 | 29 ft | 33 kts | 324° |
| 2026-05-05 19:49 | 54.90926 | 8.34539 | 28 ft | 59 kts | 323° |
| 2026-05-05 19:49 | 54.91264 | 8.34083 | 187 ft | 63 kts | 328° |
| 2026-05-05 19:49 | 54.91608 | 8.33643 | 400 ft | 59 kts | 324° |
| 2026-05-05 19:50 | 54.91954 | 8.33188 | 572 ft | 66 kts | 337° |
| 2026-05-05 19:50 | 54.92367 | 8.33237 | 792 ft | 65 kts | 33° |
| 2026-05-05 19:50 | 54.92592 | 8.34065 | 902 ft | 82 kts | 66° |
| 2026-05-05 19:50 | 54.92674 | 8.35144 | 889 ft | 96 kts | 68° |
| 2026-05-05 19:51 | 54.92379 | 8.36224 | 789 ft | 120 kts | 143° |
| 2026-05-05 19:51 | 54.91706 | 8.36857 | 971 ft | 104 kts | 135° |
| 2026-05-05 19:51 | 54.91176 | 8.37627 | 1121 ft | 95 kts | 120° |
| 2026-05-05 19:51 | 54.90756 | 8.38465 | 1272 ft | 88 kts | 121° |
| 2026-05-05 19:52 | 54.90285 | 8.38842 | 1234 ft | 74 kts | 162° |
| 2026-05-05 19:52 | 54.89771 | 8.38716 | 1097 ft | 74 kts | 199° |
| 2026-05-05 19:52 | 54.89315 | 8.38264 | 912 ft | 78 kts | 224° |
| 2026-05-05 19:52 | 54.89069 | 8.37540 | 810 ft | 63 kts | 274° |
| 2026-05-05 19:53 | 54.89161 | 8.36853 | 696 ft | 59 kts | 307° |
| 2026-05-05 19:53 | 54.89434 | 8.36324 | 548 ft | 60 kts | 328° |
| 2026-05-05 19:53 | 54.89790 | 8.35912 | 364 ft | 63 kts | 327° |
| 2026-05-05 19:53 | 54.90145 | 8.35490 | 187 ft | 62 kts | 325° |
| 2026-05-05 19:54 | 54.90485 | 8.35080 | 47 ft | 55 kts | 326° |
| 2026-05-05 19:54 | 54.90722 | 8.34787 | 29 ft | 31 kts | 324° |
| 2026-05-05 19:54 | 54.90997 | 8.34468 | 104 ft | 54 kts | 328° |
| 2026-05-05 19:54 | 54.91291 | 8.34084 | 280 ft | 51 kts | 327° |
| 2026-05-05 19:55 | 54.91588 | 8.33757 | 436 ft | 50 kts | 333° |
| 2026-05-05 19:55 | 54.91926 | 8.33467 | 562 ft | 58 kts | 338° |
| 2026-05-05 19:55 | 54.92277 | 8.33604 | 729 ft | 61 kts | 33° |
| 2026-05-05 19:55 | 54.92420 | 8.34364 | 851 ft | 76 kts | 75° |
| 2026-05-05 19:56 | 54.92311 | 8.35347 | 898 ft | 93 kts | 99° |
| 2026-05-05 19:56 | 54.92019 | 8.36416 | 791 ft | 110 kts | 126° |
| 2026-05-05 19:56 | 54.91264 | 8.36710 | 797 ft | 109 kts | 167° |
| 2026-05-05 19:56 | 54.90579 | 8.37030 | 868 ft | 92 kts | 148° |
| 2026-05-05 19:57 | 54.90037 | 8.37462 | 776 ft | 83 kts | 139° |
| 2026-05-05 19:57 | 54.89536 | 8.37734 | 754 ft | 76 kts | 171° |
| 2026-05-05 19:57 | 54.89015 | 8.37459 | 659 ft | 79 kts | 200° |
| 2026-05-05 19:57 | 54.88665 | 8.36735 | 491 ft | 83 kts | 257° |
| 2026-05-05 19:58 | 54.88731 | 8.35875 | 420 ft | 66 kts | 321° |
| 2026-05-05 19:58 | 54.89119 | 8.35790 | 410 ft | 59 kts | 7° |
| 2026-05-05 19:58 | 54.89531 | 8.35866 | 394 ft | 55 kts | 356° |
| 2026-05-05 19:58 | 54.89909 | 8.35704 | 282 ft | 59 kts | 338° |
| 2026-05-05 19:59 | 54.90277 | 8.35336 | 122 ft | 63 kts | 323° |
| 2026-05-05 19:59 | 54.90601 | 8.34927 | 35 ft | 44 kts | 324° |